createdAt,value
2022-08-18T00:04:49.947Z,22.40
2022-08-18T00:09:56.153Z,22.30
2022-08-18T00:15:03.539Z,22.10
2022-08-18T00:20:09.489Z,22.20
2022-08-18T00:25:15.190Z,22.10
2022-08-18T00:30:21.200Z,22.10
2022-08-18T00:35:42.971Z,22.10
2022-08-18T00:40:52.141Z,22.00
2022-08-18T00:45:54.630Z,21.90
2022-08-18T00:51:00.194Z,22.00
2022-08-18T00:56:11.546Z,22.10
2022-08-18T01:01:15.191Z,22.10
2022-08-18T01:06:41.366Z,22.00
2022-08-18T01:11:44.663Z,22.00
2022-08-18T01:17:05.967Z,22.00
2022-08-18T01:22:26.518Z,22.00
2022-08-18T01:27:32.497Z,22.00
2022-08-18T01:32:34.888Z,21.90
2022-08-18T01:37:37.826Z,22.00
2022-08-18T01:42:43.415Z,21.90
2022-08-18T01:47:47.354Z,21.80
2022-08-18T01:53:01.632Z,21.70
2022-08-18T01:58:05.507Z,21.70
2022-08-18T02:03:11.889Z,21.60
2022-08-18T02:08:15.502Z,21.60
2022-08-18T02:13:18.420Z,21.40
2022-08-18T02:18:30.535Z,21.50
2022-08-18T02:23:53.327Z,21.40
2022-08-18T02:28:56.837Z,21.50
2022-08-18T02:33:59.629Z,21.30
2022-08-18T02:39:02.148Z,21.20
2022-08-18T02:44:07.434Z,21.20
2022-08-18T02:49:09.966Z,21.10
2022-08-18T02:54:12.337Z,21.10
2022-08-18T02:59:17.228Z,21.00
2022-08-18T03:04:29.605Z,21.00
2022-08-18T03:09:32.895Z,21.00
2022-08-18T03:14:36.170Z,20.90
2022-08-18T03:19:38.587Z,20.90
2022-08-18T03:24:41.108Z,21.00
2022-08-18T03:29:43.811Z,21.00
2022-08-18T03:34:46.249Z,20.90
2022-08-18T03:39:51.779Z,21.00
2022-08-18T03:44:54.210Z,20.90
2022-08-18T03:49:56.572Z,20.90
2022-08-18T03:55:00.169Z,21.00
2022-08-18T04:00:05.996Z,21.00
2022-08-18T04:05:11.138Z,21.00
2022-08-18T04:10:14.148Z,21.00
2022-08-18T04:15:21.936Z,21.10
2022-08-18T04:20:24.410Z,21.10
2022-08-18T04:25:32.135Z,21.20
2022-08-18T04:30:36.584Z,21.10
2022-08-18T04:35:38.966Z,21.20
2022-08-18T04:40:43.004Z,21.30
2022-08-18T04:45:46.044Z,21.50
2022-08-18T04:50:48.426Z,21.70
2022-08-18T04:55:54.255Z,21.90
2022-08-18T05:01:01.662Z,22.00
2022-08-18T05:06:05.131Z,22.20
2022-08-18T05:11:07.649Z,22.20
2022-08-18T05:16:16.939Z,22.50
2022-08-18T05:21:23.139Z,22.80
2022-08-18T05:26:34.196Z,23.00
2022-08-18T05:31:36.808Z,23.20
2022-08-18T05:36:51.926Z,23.40
2022-08-18T05:41:59.028Z,23.20
2022-08-18T05:47:17.015Z,23.50
2022-08-18T05:52:26.069Z,23.80
2022-08-18T05:57:33.188Z,24.20
2022-08-18T06:02:38.630Z,24.30
2022-08-18T06:07:42.473Z,24.40
2022-08-18T06:12:56.053Z,24.20
2022-08-18T06:18:22.833Z,24.60
2022-08-18T06:23:55.682Z,25.00
2022-08-18T06:29:23.156Z,25.30
2022-08-18T06:34:54.714Z,25.60
2022-08-18T06:39:57.358Z,25.90
2022-08-18T06:45:08.542Z,25.80
2022-08-18T06:50:22.029Z,26.00
2022-08-18T06:55:43.864Z,26.30
2022-08-18T07:00:52.310Z,26.50
2022-08-18T07:06:05.717Z,26.40
2022-08-18T07:11:25.904Z,26.50
2022-08-18T07:16:56.704Z,26.70
2022-08-18T07:22:02.434Z,27.00
2022-08-18T07:27:11.871Z,27.00
2022-08-18T07:32:21.432Z,27.40
2022-08-18T07:37:44.997Z,27.80
2022-08-18T07:43:01.251Z,28.10
2022-08-18T07:54:00.246Z,29.20
2022-08-18T07:59:13.225Z,29.40
2022-08-18T08:04:39.774Z,29.40
2022-08-18T08:09:51.735Z,29.90
2022-08-18T08:15:07.949Z,30.00
2022-08-18T08:21:03.588Z,30.20
2022-08-18T08:26:20.080Z,30.60
2022-08-18T08:31:39.281Z,31.10
2022-08-18T08:36:45.189Z,31.10
2022-08-18T08:42:29.750Z,31.00
2022-08-18T08:47:35.549Z,31.00
2022-08-18T08:52:48.719Z,31.40
2022-08-18T08:58:08.543Z,31.50
2022-08-18T09:03:30.335Z,31.50
2022-08-18T09:08:36.344Z,32.00
2022-08-18T09:13:59.696Z,32.40
2022-08-18T09:19:14.200Z,32.50
2022-08-18T09:24:21.188Z,32.80
2022-08-18T09:29:46.933Z,32.60
2022-08-18T09:35:05.380Z,32.30
2022-08-18T09:41:01.201Z,32.10
2022-08-18T09:51:40.028Z,32.20
2022-08-18T09:57:03.894Z,32.00
2022-08-18T10:02:20.261Z,32.20
2022-08-18T10:07:35.402Z,32.40
2022-08-18T10:13:12.637Z,32.80
2022-08-18T10:18:30.667Z,33.10
2022-08-18T10:29:32.154Z,32.80
2022-08-18T10:34:52.910Z,32.80
2022-08-18T10:40:13.200Z,32.70
2022-08-18T10:45:30.441Z,32.60
2022-08-18T10:50:56.578Z,32.50
2022-08-18T10:56:43.809Z,33.10
2022-08-18T11:01:50.698Z,32.90
2022-08-18T11:07:09.005Z,32.80
2022-08-18T11:12:14.165Z,32.70
2022-08-18T11:17:26.846Z,32.50
2022-08-18T11:22:34.350Z,32.40
2022-08-18T11:27:46.216Z,32.80
2022-08-18T11:32:51.677Z,33.00
2022-08-18T11:37:58.422Z,32.60
2022-08-18T11:43:21.538Z,32.90
2022-08-18T11:48:35.875Z,32.70
2022-08-18T11:59:52.946Z,32.50
2022-08-18T12:05:03.009Z,32.50
2022-08-18T12:10:26.168Z,32.20
2022-08-18T12:15:47.353Z,32.40
2022-08-18T12:20:51.160Z,32.80
2022-08-18T12:25:54.090Z,33.20
2022-08-18T12:31:00.068Z,32.60
2022-08-18T12:36:06.178Z,32.00
2022-08-18T12:41:11.976Z,31.40
2022-08-18T12:46:14.596Z,31.50
2022-08-18T12:51:17.075Z,32.00
2022-08-18T12:56:22.653Z,32.40
2022-08-18T13:01:25.506Z,32.80
2022-08-18T13:06:29.040Z,33.20
2022-08-18T13:11:31.401Z,33.20
2022-08-18T13:16:54.997Z,32.70
2022-08-18T13:21:57.971Z,32.70
2022-08-18T13:27:03.843Z,33.00
2022-08-18T13:32:21.377Z,32.80
2022-08-18T13:37:26.644Z,33.00
2022-08-18T13:42:31.262Z,32.80
2022-08-18T13:47:52.711Z,32.80
2022-08-18T13:52:57.285Z,32.80
2022-08-18T13:58:00.891Z,32.70
2022-08-18T14:03:06.541Z,32.40
2022-08-18T14:08:11.142Z,32.00
2022-08-18T14:13:24.764Z,32.00
2022-08-18T14:18:30.825Z,32.50
2022-08-18T14:23:53.256Z,32.80
2022-08-18T14:28:55.849Z,33.20
2022-08-18T14:34:04.019Z,33.20
2022-08-18T14:39:08.472Z,33.00
2022-08-18T14:44:15.349Z,32.40
2022-08-18T14:49:28.294Z,32.40
2022-08-18T14:54:32.385Z,32.70
2022-08-18T14:59:37.731Z,32.70
2022-08-18T15:04:53.163Z,32.80
2022-08-18T15:10:14.781Z,32.50
2022-08-18T15:15:19.195Z,32.30
2022-08-18T15:20:28.861Z,32.00
2022-08-18T15:25:51.002Z,32.00
2022-08-18T15:36:21.465Z,31.80
2022-08-18T15:41:43.944Z,31.60
2022-08-18T15:46:53.476Z,31.50
2022-08-18T15:51:56.481Z,31.20
2022-08-18T15:56:59.330Z,31.10
2022-08-18T16:02:02.651Z,31.10
2022-08-18T16:07:05.448Z,31.00
2022-08-18T16:12:10.899Z,30.80
2022-08-18T16:17:29.820Z,30.80
2022-08-18T16:22:35.583Z,30.70
2022-08-18T16:27:42.698Z,30.70
2022-08-18T16:32:46.835Z,30.60
2022-08-18T16:37:49.761Z,30.50
2022-08-18T16:42:55.527Z,30.40
2022-08-18T16:47:57.928Z,30.40
2022-08-18T16:53:00.349Z,30.20
2022-08-18T16:58:22.682Z,30.10
2022-08-18T17:03:43.477Z,30.00
2022-08-18T17:08:46.378Z,29.80
2022-08-18T17:13:50.854Z,29.80
2022-08-18T17:18:54.505Z,29.70
2022-08-18T17:24:02.130Z,29.50
2022-08-18T17:29:36.609Z,29.40
2022-08-18T17:34:42.727Z,29.30
2022-08-18T17:40:00.539Z,29.20
2022-08-18T17:45:08.030Z,29.00
2022-08-18T17:50:48.992Z,28.90
2022-08-18T17:55:59.991Z,28.80
2022-08-18T18:01:03.723Z,28.60
2022-08-18T18:06:30.555Z,28.40
2022-08-18T18:11:36.846Z,28.30
2022-08-18T18:16:39.235Z,28.20
2022-08-18T18:21:56.573Z,28.00
2022-08-18T18:27:32.277Z,27.90
2022-08-18T18:32:59.318Z,27.70
2022-08-18T18:38:06.383Z,27.60
2022-08-18T18:43:29.027Z,27.50
2022-08-18T18:48:52.300Z,27.40
2022-08-18T18:54:03.585Z,27.20
2022-08-18T18:59:05.950Z,27.10
2022-08-18T19:04:18.510Z,27.00
2022-08-18T19:09:32.068Z,26.90
2022-08-18T19:14:41.078Z,26.90
2022-08-18T19:19:58.242Z,26.80
2022-08-18T19:25:13.599Z,26.60
2022-08-18T19:30:17.735Z,26.50
2022-08-18T19:35:35.108Z,26.50
2022-08-18T19:40:47.731Z,26.40
2022-08-18T19:45:58.428Z,26.40
2022-08-18T19:51:08.396Z,26.50
2022-08-18T19:56:48.934Z,26.50
2022-08-18T20:02:15.597Z,26.50
2022-08-18T20:07:17.957Z,26.50
2022-08-18T20:12:29.572Z,26.40
2022-08-18T20:17:32.044Z,26.50
2022-08-18T20:22:42.266Z,26.40
2022-08-18T20:28:09.892Z,26.40
2022-08-18T20:33:18.230Z,26.30
2022-08-18T20:38:47.739Z,26.20
2022-08-18T20:44:09.137Z,26.10
2022-08-18T20:49:39.058Z,26.00
2022-08-18T20:54:57.825Z,25.90
2022-08-18T21:00:27.001Z,25.70
2022-08-18T21:05:39.090Z,25.70
2022-08-18T21:10:52.784Z,25.60
2022-08-18T21:15:56.466Z,25.50
2022-08-18T21:20:59.765Z,25.50
2022-08-18T21:26:12.459Z,25.40
2022-08-18T21:31:43.641Z,25.20
2022-08-18T21:36:53.682Z,25.10
2022-08-18T21:41:58.128Z,25.10
2022-08-18T21:47:14.964Z,25.10
2022-08-18T21:52:24.293Z,25.10
2022-08-18T21:57:29.605Z,25.00
2022-08-18T22:02:32.072Z,24.90
2022-08-18T22:07:35.658Z,24.90
2022-08-18T22:12:56.701Z,24.80
2022-08-18T22:18:01.883Z,24.70
2022-08-18T22:23:54.394Z,24.70
2022-08-18T22:29:17.512Z,24.70
2022-08-18T22:34:29.105Z,24.50
2022-08-18T22:39:35.758Z,24.50
2022-08-18T22:44:38.584Z,24.40
2022-08-18T22:49:41.485Z,24.20
2022-08-18T22:54:43.829Z,24.20
2022-08-18T22:59:49.609Z,24.10
2022-08-18T23:04:52.366Z,24.10
2022-08-18T23:09:54.808Z,24.10
2022-08-18T23:14:57.189Z,24.00
2022-08-18T23:19:59.973Z,23.90
2022-08-18T23:25:08.824Z,23.90
2022-08-18T23:30:12.720Z,23.80
2022-08-18T23:35:15.777Z,23.70
2022-08-18T23:40:19.438Z,23.60
2022-08-18T23:45:22.070Z,23.50
2022-08-18T23:50:24.583Z,23.50
2022-08-18T23:55:29.499Z,23.40
